createdAt,value
2019-03-01T00:00:45.966Z,1006.84
2019-03-01T00:01:45.855Z,1006.88
2019-03-01T00:02:45.860Z,1006.84
2019-03-01T00:03:45.858Z,1006.82
2019-03-01T00:04:45.862Z,1006.84
2019-03-01T00:05:45.876Z,1006.83
2019-03-01T00:06:45.900Z,1006.82
2019-03-01T00:07:45.830Z,1006.83
2019-03-01T00:08:45.770Z,1006.80
2019-03-01T00:09:45.769Z,1006.79
2019-03-01T00:10:45.781Z,1006.80
2019-03-01T00:11:45.728Z,1006.81
2019-03-01T00:12:45.842Z,1006.83
2019-03-01T00:13:45.717Z,1006.83
2019-03-01T00:14:45.723Z,1006.84
2019-03-01T00:15:45.717Z,1006.79
2019-03-01T00:16:45.696Z,1006.81
2019-03-01T00:17:45.741Z,1006.77
2019-03-01T00:18:45.662Z,1006.82
2019-03-01T00:19:45.651Z,1006.82
2019-03-01T00:20:45.639Z,1006.82
2019-03-01T00:21:45.637Z,1006.83
2019-03-01T00:22:45.633Z,1006.79
2019-03-01T00:23:45.678Z,1006.79
2019-03-01T00:24:45.609Z,1006.78
2019-03-01T00:25:45.590Z,1006.74
2019-03-01T00:26:45.597Z,1006.78
2019-03-01T00:27:45.571Z,1006.80
2019-03-01T00:28:45.574Z,1006.80
2019-03-01T00:29:45.651Z,1006.79
2019-03-01T00:30:45.541Z,1006.79
2019-03-01T00:31:45.523Z,1006.79
2019-03-01T00:32:45.510Z,1006.81
2019-03-01T00:33:45.502Z,1006.80
2019-03-01T00:34:45.482Z,1006.77
2019-03-01T00:35:45.719Z,1006.77
2019-03-01T00:36:45.465Z,1006.81
2019-03-01T00:37:45.464Z,1006.78
2019-03-01T00:38:45.546Z,1006.76
2019-03-01T00:39:45.941Z,1006.78
2019-03-01T00:40:45.485Z,1006.75
2019-03-01T00:41:45.559Z,1006.72
2019-03-01T00:42:45.425Z,1006.72
2019-03-01T00:43:45.409Z,1006.77
2019-03-01T00:44:47.801Z,1006.74
2019-03-01T00:45:45.390Z,1006.73
2019-03-01T00:46:45.407Z,1006.71
2019-03-01T00:47:45.343Z,1006.74
2019-03-01T00:48:45.333Z,1006.73
2019-03-01T00:49:45.329Z,1006.69
2019-03-01T00:51:00.054Z,1006.68
2019-03-01T00:51:45.325Z,1006.65
2019-03-01T00:52:45.380Z,1006.60
2019-03-01T00:53:45.285Z,1006.55
2019-03-01T00:54:45.275Z,1006.60
2019-03-01T00:55:45.261Z,1006.55
2019-03-01T00:56:45.272Z,1006.58
2019-03-01T00:57:45.230Z,1006.59
2019-03-01T00:58:45.326Z,1006.56
2019-03-01T00:59:45.231Z,1006.57
2019-03-01T01:00:45.319Z,1006.58
2019-03-01T01:01:45.241Z,1006.58
2019-03-01T01:02:45.182Z,1006.57
2019-03-01T01:03:45.173Z,1006.53
2019-03-01T01:04:45.275Z,1006.53
2019-03-01T01:05:45.243Z,1006.50
2019-03-01T01:06:45.148Z,1006.50
2019-03-01T01:07:45.132Z,1006.52
2019-03-01T01:08:45.227Z,1006.51
2019-03-01T01:09:45.149Z,1006.52
2019-03-01T01:10:45.108Z,1006.52
2019-03-01T01:11:45.117Z,1006.51
2019-03-01T01:12:45.068Z,1006.51
2019-03-01T01:13:45.095Z,1006.50
2019-03-01T01:14:45.186Z,1006.48
2019-03-01T01:15:45.046Z,1006.51
2019-03-01T01:16:45.033Z,1006.46
2019-03-01T01:17:45.044Z,1006.45
2019-03-01T01:18:45.010Z,1006.47
2019-03-01T01:19:45.178Z,1006.46
2019-03-01T01:20:44.989Z,1006.48
2019-03-01T01:21:44.983Z,1006.54
2019-03-01T01:22:44.980Z,1006.46
2019-03-01T01:23:44.973Z,1006.50
2019-03-01T01:24:44.955Z,1006.51
2019-03-01T01:25:45.013Z,1006.52
2019-03-01T01:26:45.007Z,1006.51
2019-03-01T01:27:44.921Z,1006.52
2019-03-01T01:28:44.912Z,1006.54
2019-03-01T01:29:44.898Z,1006.54
2019-03-01T01:30:44.931Z,1006.49
2019-03-01T01:31:44.956Z,1006.54
2019-03-01T01:32:44.870Z,1006.57
2019-03-01T01:33:44.854Z,1006.52
2019-03-01T01:34:44.855Z,1006.50
2019-03-01T01:35:44.825Z,1006.52
2019-03-01T01:36:44.815Z,1006.47
2019-03-01T01:37:44.882Z,1006.51
2019-03-01T01:38:44.832Z,1006.47
2019-03-01T01:39:44.787Z,1006.48
2019-03-01T01:40:44.783Z,1006.42
2019-03-01T01:41:44.765Z,1006.42
2019-03-01T01:42:44.748Z,1006.41
2019-03-01T01:43:44.834Z,1006.39
2019-03-01T01:44:44.735Z,1006.39
2019-03-01T01:45:44.718Z,1006.35
2019-03-01T01:46:44.700Z,1006.33
2019-03-01T01:47:44.764Z,1006.35
2019-03-01T01:48:44.685Z,1006.29
2019-03-01T01:49:44.820Z,1006.25
2019-03-01T01:50:44.674Z,1006.24
2019-03-01T01:52:08.575Z,1006.23
2019-03-01T01:52:44.638Z,1006.23
2019-03-01T01:53:44.673Z,1006.14
2019-03-01T01:54:44.644Z,1006.09
2019-03-01T01:55:44.619Z,1006.07
2019-03-01T01:56:44.605Z,1006.04
2019-03-01T01:57:44.610Z,1006.02
2019-03-01T01:58:44.576Z,1005.99
2019-03-01T01:59:44.704Z,1005.95
2019-03-01T02:00:44.583Z,1005.92
2019-03-01T02:01:44.547Z,1005.82
2019-03-01T02:02:44.531Z,1005.81
2019-03-01T02:03:44.591Z,1005.76
2019-03-01T02:04:44.532Z,1005.72
2019-03-01T02:05:44.976Z,1005.73
2019-03-01T02:06:44.549Z,1005.72
2019-03-01T02:07:44.472Z,1005.73
2019-03-01T02:08:44.471Z,1005.71
2019-03-01T02:09:44.469Z,1005.70
2019-03-01T02:10:44.444Z,1005.65
2019-03-01T02:11:44.504Z,1005.58
2019-03-01T02:12:44.448Z,1005.53
2019-03-01T02:13:44.437Z,1005.61
2019-03-01T02:14:44.413Z,1005.61
2019-03-01T02:15:44.418Z,1005.67
2019-03-01T02:16:44.388Z,1005.76
2019-03-01T02:17:44.460Z,1005.71
2019-03-01T02:18:44.366Z,1005.71
2019-03-01T02:19:44.382Z,1005.75
2019-03-01T02:20:44.336Z,1005.68
2019-03-01T02:21:44.347Z,1005.68
2019-03-01T02:22:44.319Z,1005.71
2019-03-01T02:23:44.377Z,1005.74
2019-03-01T02:24:44.374Z,1005.76
2019-03-01T02:25:44.290Z,1005.77
2019-03-01T02:26:44.288Z,1005.78
2019-03-01T02:27:44.281Z,1005.78
2019-03-01T02:28:44.395Z,1005.72
2019-03-01T02:29:44.244Z,1005.76
2019-03-01T02:30:44.300Z,1005.77
2019-03-01T02:31:44.216Z,1005.75
2019-03-01T02:32:44.387Z,1005.75
2019-03-01T02:33:44.216Z,1005.68
2019-03-01T02:34:44.196Z,1005.70
2019-03-01T02:35:44.183Z,1005.66
2019-03-01T02:36:44.200Z,1005.71
2019-03-01T02:37:44.208Z,1005.67
2019-03-01T02:38:44.152Z,1005.65
2019-03-01T02:39:44.134Z,1005.63
2019-03-01T02:40:44.120Z,1005.63
2019-03-01T02:41:44.117Z,1005.63
2019-03-01T02:42:44.096Z,1005.62
2019-03-01T02:43:44.191Z,1005.61
2019-03-01T02:44:44.077Z,1005.58
2019-03-01T02:45:44.057Z,1005.57
2019-03-01T02:46:44.055Z,1005.58
2019-03-01T02:47:44.052Z,1005.61
2019-03-01T02:48:44.038Z,1005.69
2019-03-01T02:49:44.151Z,1005.69
2019-03-01T02:50:44.007Z,1005.62
2019-03-01T02:51:43.990Z,1005.64
2019-03-01T02:52:43.994Z,1005.63
2019-03-01T02:53:44.022Z,1005.64
2019-03-01T02:54:43.969Z,1005.70
2019-03-01T02:55:44.103Z,1005.67
2019-03-01T02:56:43.965Z,1005.71
2019-03-01T02:57:43.942Z,1005.72
2019-03-01T02:58:43.927Z,1005.72
2019-03-01T02:59:43.931Z,1005.72
2019-03-01T03:00:43.900Z,1005.71
2019-03-01T03:01:44.009Z,1005.68
2019-03-01T03:02:43.903Z,1005.66
2019-03-01T03:03:43.859Z,1005.65
2019-03-01T03:04:43.860Z,1005.58
2019-03-01T03:05:43.846Z,1005.63
2019-03-01T03:06:43.838Z,1005.60
2019-03-01T03:07:43.931Z,1005.61
2019-03-01T03:08:43.847Z,1005.65
2019-03-01T03:09:43.843Z,1005.66
2019-03-01T03:10:43.953Z,1005.67
2019-03-01T03:11:43.775Z,1005.72
2019-03-01T03:12:43.843Z,1005.73
2019-03-01T03:13:43.875Z,1005.72
2019-03-01T03:14:43.753Z,1005.75
2019-03-01T03:15:43.734Z,1005.73
2019-03-01T03:16:43.749Z,1005.70
2019-03-01T03:17:43.713Z,1005.70
2019-03-01T03:18:43.766Z,1005.68
2019-03-01T03:19:43.708Z,1005.70
2019-03-01T03:20:43.749Z,1005.70
2019-03-01T03:21:43.694Z,1005.70
2019-03-01T03:22:46.585Z,1005.67
2019-03-01T03:23:43.664Z,1005.65
2019-03-01T03:24:43.641Z,1005.67
2019-03-01T03:25:43.648Z,1005.65
2019-03-01T03:26:43.696Z,1005.61
2019-03-01T03:27:43.722Z,1005.63
2019-03-01T03:28:43.593Z,1005.63
2019-03-01T03:29:43.584Z,1005.61
2019-03-01T03:30:43.579Z,1005.63
2019-03-01T03:31:43.568Z,1005.60
2019-03-01T03:32:43.768Z,1005.55
2019-03-01T03:33:43.550Z,1005.56
2019-03-01T03:34:43.539Z,1005.62
2019-03-01T03:35:43.516Z,1005.60
2019-03-01T03:36:43.511Z,1005.64
2019-03-01T03:37:43.583Z,1005.60
2019-03-01T03:38:43.479Z,1005.61
2019-03-01T03:39:43.482Z,1005.63
2019-03-01T03:40:43.548Z,1005.64
2019-03-01T03:41:43.465Z,1005.63
2019-03-01T03:42:43.470Z,1005.62
2019-03-01T03:43:43.433Z,1005.58
2019-03-01T03:44:43.459Z,1005.60
2019-03-01T03:45:43.401Z,1005.60
2019-03-01T03:46:43.504Z,1005.63
2019-03-01T03:47:43.458Z,1005.58
2019-03-01T03:48:43.383Z,1005.58
2019-03-01T03:49:43.401Z,1005.57
2019-03-01T03:50:43.364Z,1005.53
2019-03-01T03:51:43.461Z,1005.54
2019-03-01T03:52:43.351Z,1005.53
2019-03-01T03:53:43.348Z,1005.53
2019-03-01T03:54:43.305Z,1005.48
2019-03-01T03:55:43.298Z,1005.48
2019-03-01T03:56:43.288Z,1005.45
2019-03-01T03:57:43.353Z,1005.47
2019-03-01T03:58:43.315Z,1005.44
2019-03-01T03:59:43.283Z,1005.43
2019-03-01T04:00:43.245Z,1005.47
2019-03-01T04:01:43.242Z,1005.47
2019-03-01T04:02:43.217Z,1005.41
2019-03-01T04:03:43.283Z,1005.41
2019-03-01T04:04:43.207Z,1005.37
2019-03-01T04:05:43.211Z,1005.38
2019-03-01T04:06:43.197Z,1005.40
2019-03-01T04:07:43.165Z,1005.33
2019-03-01T04:08:43.315Z,1005.32
2019-03-01T04:09:43.149Z,1005.27
2019-03-01T04:10:43.144Z,1005.21
2019-03-01T04:11:43.148Z,1005.21
2019-03-01T04:12:43.114Z,1005.13
2019-03-01T04:13:43.115Z,1005.09
2019-03-01T04:14:43.200Z,1005.13
2019-03-01T04:15:43.079Z,1005.10
2019-03-01T04:16:43.070Z,1005.08
2019-03-01T04:17:43.066Z,1005.06
2019-03-01T04:18:43.046Z,1005.06
2019-03-01T04:19:43.181Z,1005.03
2019-03-01T04:20:43.350Z,1004.99
2019-03-01T04:21:43.034Z,1005.02
2019-03-01T04:22:43.025Z,1005.00
2019-03-01T04:23:42.992Z,1004.97
2019-03-01T04:24:42.993Z,1004.93
2019-03-01T04:25:43.050Z,1004.97
2019-03-01T04:26:42.959Z,1004.94
2019-03-01T04:27:42.942Z,1004.92
2019-03-01T04:28:42.947Z,1004.90
2019-03-01T04:29:42.929Z,1004.89
2019-03-01T04:30:42.921Z,1004.91
2019-03-01T04:31:43.022Z,1004.86
2019-03-01T04:32:42.907Z,1004.85
2019-03-01T04:33:43.015Z,1004.88
2019-03-01T04:34:42.887Z,1004.90
2019-03-01T04:35:42.858Z,1004.88
2019-03-01T04:36:42.856Z,1004.87
2019-03-01T04:37:42.841Z,1004.86
2019-03-01T04:38:43.465Z,1004.80
2019-03-01T04:39:42.814Z,1004.82
2019-03-01T04:40:42.809Z,1004.84
2019-03-01T04:41:42.803Z,1004.78
2019-03-01T04:42:42.859Z,1004.81
2019-03-01T04:43:42.782Z,1004.82
2019-03-01T04:44:42.870Z,1004.87
2019-03-01T04:45:42.758Z,1004.83
2019-03-01T04:46:42.737Z,1004.82
2019-03-01T04:47:42.727Z,1004.77
2019-03-01T04:48:42.866Z,1004.79
2019-03-01T04:49:42.721Z,1004.78
2019-03-01T04:50:42.711Z,1004.75
2019-03-01T04:51:42.682Z,1004.73
2019-03-01T04:52:42.671Z,1004.74
2019-03-01T04:53:42.673Z,1004.69
2019-03-01T04:54:42.772Z,1004.67
2019-03-01T04:55:42.660Z,1004.60
2019-03-01T04:56:42.628Z,1004.59
2019-03-01T04:57:42.619Z,1004.54
2019-03-01T04:58:42.612Z,1004.52
2019-03-01T04:59:42.708Z,1004.52
2019-03-01T05:00:42.715Z,1004.48
2019-03-01T05:01:42.591Z,1004.50
2019-03-01T05:02:42.562Z,1004.54
2019-03-01T05:03:42.554Z,1004.53
2019-03-01T05:04:42.569Z,1004.53
2019-03-01T05:05:42.717Z,1004.48
2019-03-01T05:06:42.527Z,1004.50
2019-03-01T05:07:42.528Z,1004.50
2019-03-01T05:08:42.493Z,1004.52
2019-03-01T05:09:42.487Z,1004.50
2019-03-01T05:10:42.487Z,1004.52
2019-03-01T05:11:42.545Z,1004.47
2019-03-01T05:12:42.447Z,1004.48
2019-03-01T05:13:42.479Z,1004.48
2019-03-01T05:14:42.432Z,1004.47
2019-03-01T05:15:42.439Z,1004.46
2019-03-01T05:16:42.698Z,1004.54
2019-03-01T05:17:42.411Z,1004.53
2019-03-01T05:18:42.392Z,1004.56
2019-03-01T05:19:42.372Z,1004.59
2019-03-01T05:20:42.382Z,1004.58
2019-03-01T05:21:42.431Z,1004.61
2019-03-01T05:22:42.378Z,1004.62
2019-03-01T05:23:42.392Z,1004.62
2019-03-01T05:24:42.324Z,1004.67
2019-03-01T05:25:42.309Z,1004.61
2019-03-01T05:26:42.300Z,1004.62
2019-03-01T05:27:42.288Z,1004.60
2019-03-01T05:28:42.307Z,1004.62
2019-03-01T05:29:42.340Z,1004.63
2019-03-01T05:30:42.349Z,1004.69
2019-03-01T05:31:42.259Z,1004.70
2019-03-01T05:32:42.237Z,1004.72
2019-03-01T05:33:42.242Z,1004.69
2019-03-01T05:34:42.222Z,1004.68
2019-03-01T05:35:42.285Z,1004.72
2019-03-01T05:36:42.252Z,1004.73
2019-03-01T05:37:42.175Z,1004.68
2019-03-01T05:38:42.173Z,1004.72
2019-03-01T05:39:42.165Z,1004.73
2019-03-01T05:40:42.164Z,1004.71
2019-03-01T05:41:42.151Z,1004.70
2019-03-01T05:42:42.204Z,1004.70
2019-03-01T05:43:42.215Z,1004.65
2019-03-01T05:44:42.110Z,1004.64
2019-03-01T05:45:42.094Z,1004.72
2019-03-01T05:46:42.085Z,1004.66
2019-03-01T05:47:42.075Z,1004.71
2019-03-01T05:48:42.070Z,1004.69
2019-03-01T05:49:42.170Z,1004.71
2019-03-01T05:50:42.034Z,1004.68
2019-03-01T05:51:42.025Z,1004.69
2019-03-01T05:52:42.051Z,1004.70
2019-03-01T05:53:42.014Z,1004.67
2019-03-01T05:54:42.047Z,1004.70
2019-03-01T05:55:42.170Z,1004.64
2019-03-01T05:56:42.182Z,1004.73
2019-03-01T05:57:41.973Z,1004.71
2019-03-01T05:58:41.948Z,1004.68
2019-03-01T05:59:41.944Z,1004.68
2019-03-01T06:00:42.039Z,1004.66
2019-03-01T06:01:42.249Z,1004.65
2019-03-01T06:02:42.857Z,1004.68
2019-03-01T06:03:41.905Z,1004.63
2019-03-01T06:04:41.887Z,1004.67
2019-03-01T06:05:41.879Z,1004.62
2019-03-01T06:06:41.984Z,1004.64
2019-03-01T06:07:41.864Z,1004.67
2019-03-01T06:08:41.854Z,1004.70
2019-03-01T06:09:41.860Z,1004.68
2019-03-01T06:10:41.857Z,1004.67
2019-03-01T06:11:42.055Z,1004.63
2019-03-01T06:12:41.836Z,1004.61
2019-03-01T06:13:41.797Z,1004.61
2019-03-01T06:14:41.780Z,1004.60
2019-03-01T06:15:41.827Z,1004.62
2019-03-01T06:16:41.923Z,1004.62
2019-03-01T06:17:41.737Z,1004.62
2019-03-01T06:18:41.730Z,1004.64
2019-03-01T06:19:41.718Z,1004.64
2019-03-01T06:20:41.777Z,1004.64
2019-03-01T06:21:41.711Z,1004.63
2019-03-01T06:22:41.768Z,1004.67
2019-03-01T06:23:41.687Z,1004.67
2019-03-01T06:24:41.741Z,1004.63
2019-03-01T06:25:41.650Z,1004.66
2019-03-01T06:26:41.641Z,1004.63
2019-03-01T06:27:41.631Z,1004.62
2019-03-01T06:28:41.651Z,1004.61
2019-03-01T06:29:41.619Z,1004.60
2019-03-01T06:30:41.884Z,1004.64
2019-03-01T06:31:41.591Z,1004.67
2019-03-01T06:32:42.288Z,1004.66
2019-03-01T06:33:41.569Z,1004.73
2019-03-01T06:34:41.555Z,1004.77
2019-03-01T06:35:41.557Z,1004.74
2019-03-01T06:36:41.628Z,1004.76
2019-03-01T06:37:41.531Z,1004.83
2019-03-01T06:38:41.523Z,1004.85
2019-03-01T06:39:41.508Z,1004.92
2019-03-01T06:40:41.529Z,1004.88
2019-03-01T06:41:41.519Z,1004.87
2019-03-01T06:42:41.553Z,1004.87
2019-03-01T06:43:41.473Z,1004.92
2019-03-01T06:44:41.470Z,1004.89
2019-03-01T06:45:41.438Z,1004.87
2019-03-01T06:46:41.437Z,1004.88
2019-03-01T06:47:41.553Z,1004.89
2019-03-01T06:48:41.405Z,1004.89
2019-03-01T06:49:41.394Z,1004.94
2019-03-01T06:50:41.390Z,1004.95
2019-03-01T06:51:41.417Z,1004.93
2019-03-01T06:52:41.370Z,1004.95
2019-03-01T06:53:41.432Z,1004.93
2019-03-01T06:54:41.336Z,1004.95
2019-03-01T06:55:41.341Z,1004.91
2019-03-01T06:56:41.320Z,1004.95
2019-03-01T06:57:41.394Z,1005.00
2019-03-01T06:58:41.303Z,1005.02
2019-03-01T06:59:41.296Z,1005.03
2019-03-01T07:00:49.880Z,1005.05
2019-03-01T07:01:42.267Z,1005.03
2019-03-01T07:02:41.257Z,1005.06
2019-03-01T07:03:41.357Z,1005.08
2019-03-01T07:04:41.271Z,1005.05
2019-03-01T07:05:41.249Z,1004.97
2019-03-01T07:06:41.212Z,1004.95
2019-03-01T07:07:41.192Z,1004.98
2019-03-01T07:08:41.204Z,1004.95
2019-03-01T07:09:42.519Z,1004.90
2019-03-01T07:10:41.167Z,1004.92
2019-03-01T07:11:41.164Z,1004.92
2019-03-01T07:12:41.149Z,1004.95
2019-03-01T07:13:41.135Z,1004.94
2019-03-01T07:14:41.250Z,1004.97
2019-03-01T07:15:41.248Z,1004.97
2019-03-01T07:16:41.102Z,1004.96
2019-03-01T07:17:41.170Z,1004.92
2019-03-01T07:18:41.087Z,1004.94
2019-03-01T07:19:41.161Z,1004.99
2019-03-01T07:20:41.123Z,1004.97
2019-03-01T07:21:41.037Z,1005.00
2019-03-01T07:22:41.045Z,1005.02
2019-03-01T07:23:55.678Z,1004.97
2019-03-01T07:24:41.023Z,1004.95
2019-03-01T07:25:42.498Z,1004.95
2019-03-01T07:26:40.999Z,1004.99
2019-03-01T07:27:40.989Z,1005.01
2019-03-01T07:28:40.979Z,1005.00
2019-03-01T07:29:40.961Z,1004.99
2019-03-01T07:30:40.998Z,1005.01
2019-03-01T07:31:40.947Z,1004.97
2019-03-01T07:32:40.936Z,1005.01
2019-03-01T07:33:40.989Z,1005.01
2019-03-01T07:34:40.946Z,1005.00
2019-03-01T07:35:40.890Z,1005.03
2019-03-01T07:36:40.999Z,1005.04
2019-03-01T07:37:40.870Z,1005.07
2019-03-01T07:38:40.866Z,1005.08
2019-03-01T07:39:40.843Z,1005.04
2019-03-01T07:40:40.923Z,1005.07
2019-03-01T07:41:40.845Z,1005.08
2019-03-01T07:42:40.812Z,1005.04
2019-03-01T07:43:40.820Z,1005.08
2019-03-01T07:44:40.798Z,1005.07
2019-03-01T07:45:40.814Z,1005.07
2019-03-01T07:46:40.862Z,1005.03
2019-03-01T07:47:40.759Z,1005.02
2019-03-01T07:48:40.750Z,1005.06
2019-03-01T07:49:40.750Z,1005.09
2019-03-01T07:50:40.759Z,1005.04
2019-03-01T07:51:40.731Z,1005.06
2019-03-01T07:52:40.813Z,1004.99
2019-03-01T07:53:42.055Z,1004.97
2019-03-01T07:54:40.715Z,1004.97
2019-03-01T07:55:40.677Z,1004.98
2019-03-01T07:56:40.842Z,1004.99
2019-03-01T07:57:40.756Z,1004.98
2019-03-01T07:58:40.637Z,1004.99
2019-03-01T07:59:40.647Z,1004.97
2019-03-01T08:00:40.651Z,1004.98
2019-03-01T08:01:40.938Z,1004.96
2019-03-01T08:02:40.866Z,1005.00
2019-03-01T08:03:40.617Z,1004.98
2019-03-01T08:04:40.571Z,1004.98
2019-03-01T08:05:40.584Z,1005.01
2019-03-01T08:06:40.587Z,1004.99
2019-03-01T08:07:40.549Z,1004.98
2019-03-01T08:08:40.698Z,1004.98
2019-03-01T08:09:41.372Z,1004.95
2019-03-01T08:10:40.521Z,1004.97
2019-03-01T08:11:40.518Z,1004.96
2019-03-01T08:12:42.560Z,1004.96
2019-03-01T08:13:40.558Z,1004.96
2019-03-01T08:14:40.473Z,1004.96
2019-03-01T08:15:40.784Z,1004.98
2019-03-01T08:16:40.447Z,1004.95
2019-03-01T08:17:40.437Z,1005.00
2019-03-01T08:18:44.269Z,1004.99
2019-03-01T08:19:40.490Z,1004.92
2019-03-01T08:20:40.518Z,1004.94
2019-03-01T08:21:42.660Z,1004.96
2019-03-01T08:22:48.493Z,1004.97
2019-03-01T08:23:41.376Z,1004.96
2019-03-01T08:24:42.886Z,1005.00
2019-03-01T08:25:41.426Z,1004.96
2019-03-01T08:26:40.338Z,1004.94
2019-03-01T08:27:42.064Z,1004.92
2019-03-01T08:28:41.336Z,1004.92
2019-03-01T08:29:40.608Z,1004.93
2019-03-01T08:30:42.495Z,1004.91
2019-03-01T08:31:41.352Z,1004.86
2019-03-01T08:32:40.336Z,1004.87
2019-03-01T08:33:43.369Z,1004.90
2019-03-01T08:34:40.255Z,1004.88
2019-03-01T08:35:40.231Z,1004.82
2019-03-01T08:36:42.571Z,1004.86
2019-03-01T08:37:40.222Z,1004.94
2019-03-01T08:38:40.284Z,1004.91
2019-03-01T08:39:40.742Z,1004.94
2019-03-01T08:40:40.330Z,1004.97
2019-03-01T08:41:40.175Z,1004.96
2019-03-01T08:42:40.157Z,1004.98
2019-03-01T08:43:40.155Z,1004.99
2019-03-01T08:44:40.145Z,1005.01
2019-03-01T08:45:40.134Z,1004.98
2019-03-01T08:46:42.042Z,1004.94
2019-03-01T08:47:41.114Z,1004.97
2019-03-01T08:48:40.090Z,1004.92
2019-03-01T08:49:40.092Z,1004.97
2019-03-01T08:50:40.237Z,1004.96
2019-03-01T08:51:40.076Z,1004.98
2019-03-01T08:52:40.457Z,1005.01
2019-03-01T08:53:40.035Z,1005.01
2019-03-01T08:54:40.038Z,1005.00
2019-03-01T08:55:40.013Z,1005.04
2019-03-01T08:56:40.109Z,1005.00
2019-03-01T08:57:44.182Z,1005.00
2019-03-01T08:58:41.542Z,1005.04
2019-03-01T08:59:39.978Z,1005.01
2019-03-01T09:00:39.959Z,1004.99
2019-03-01T09:01:41.809Z,1005.02
2019-03-01T09:02:41.040Z,1005.01
2019-03-01T09:03:41.603Z,1005.01
2019-03-01T09:04:39.930Z,1004.99
2019-03-01T09:05:39.915Z,1005.03
2019-03-01T09:06:41.629Z,1005.04
2019-03-01T09:07:39.884Z,1005.08
2019-03-01T09:08:43.028Z,1005.06
2019-03-01T09:09:40.946Z,1005.11
2019-03-01T09:10:39.965Z,1005.08
2019-03-01T09:11:41.748Z,1005.12
2019-03-01T09:12:40.696Z,1005.12
2019-03-01T09:13:39.846Z,1005.15
2019-03-01T09:14:40.038Z,1005.18
2019-03-01T09:15:39.913Z,1005.15
2019-03-01T09:16:41.067Z,1005.14
2019-03-01T09:17:39.777Z,1005.12
2019-03-01T09:18:39.760Z,1005.10
2019-03-01T09:19:39.755Z,1005.13
2019-03-01T09:20:39.727Z,1005.11
2019-03-01T09:21:39.851Z,1005.16
2019-03-01T09:22:39.724Z,1005.15
2019-03-01T09:23:39.789Z,1005.19
2019-03-01T09:24:46.678Z,1005.19
2019-03-01T09:25:41.387Z,1005.15
2019-03-01T09:26:39.666Z,1005.16
2019-03-01T09:27:39.745Z,1005.18
2019-03-01T09:28:39.940Z,1005.19
2019-03-01T09:29:41.922Z,1005.20
2019-03-01T09:30:40.345Z,1005.21
2019-03-01T09:31:39.608Z,1005.17
2019-03-01T09:32:39.701Z,1005.19
2019-03-01T09:33:39.598Z,1005.14
2019-03-01T09:34:39.580Z,1005.13
2019-03-01T09:35:42.770Z,1005.08
2019-03-01T09:36:39.558Z,1005.14
2019-03-01T09:37:39.550Z,1005.08
2019-03-01T09:38:42.841Z,1005.12
2019-03-01T09:39:39.521Z,1005.10
2019-03-01T09:40:40.184Z,1005.14
2019-03-01T09:41:40.411Z,1005.11
2019-03-01T09:42:39.491Z,1005.09
2019-03-01T09:43:39.473Z,1005.14
2019-03-01T09:44:39.541Z,1005.15
2019-03-01T09:45:39.564Z,1005.12
2019-03-01T09:46:39.476Z,1005.13
2019-03-01T09:47:39.436Z,1005.13
2019-03-01T09:48:39.442Z,1005.15
2019-03-01T09:49:39.421Z,1005.16
2019-03-01T09:50:39.410Z,1005.19
2019-03-01T09:51:39.473Z,1005.25
2019-03-01T09:52:39.386Z,1005.27
2019-03-01T09:53:39.365Z,1005.23
2019-03-01T09:54:39.373Z,1005.20
2019-03-01T09:55:39.451Z,1005.16
2019-03-01T09:56:39.337Z,1005.20
2019-03-01T09:57:39.392Z,1005.17
2019-03-01T09:58:39.322Z,1005.16
2019-03-01T09:59:39.315Z,1005.19
2019-03-01T10:00:39.296Z,1005.17
2019-03-01T10:01:39.659Z,1005.15
2019-03-01T10:02:39.268Z,1005.16
2019-03-01T10:03:39.388Z,1005.17
2019-03-01T10:04:39.259Z,1005.20
2019-03-01T10:05:39.241Z,1005.19
2019-03-01T10:06:39.341Z,1005.14
2019-03-01T10:07:39.221Z,1005.12
2019-03-01T10:08:39.227Z,1005.11
2019-03-01T10:09:39.197Z,1005.13
2019-03-01T10:10:39.222Z,1005.15
2019-03-01T10:11:39.175Z,1005.14
2019-03-01T10:12:39.285Z,1005.12
2019-03-01T10:13:39.160Z,1005.15
2019-03-01T10:14:39.261Z,1005.15
2019-03-01T10:15:39.120Z,1005.20
2019-03-01T10:16:39.117Z,1005.20
2019-03-01T10:17:39.097Z,1005.17
2019-03-01T10:18:39.094Z,1005.23
2019-03-01T10:19:39.229Z,1005.21
2019-03-01T10:20:39.066Z,1005.20
2019-03-01T10:21:39.214Z,1005.19
2019-03-01T10:22:39.253Z,1005.21
2019-03-01T10:23:39.047Z,1005.21
2019-03-01T10:24:39.055Z,1005.22
2019-03-01T10:25:39.044Z,1005.26
2019-03-01T10:26:39.013Z,1005.27
2019-03-01T10:27:38.992Z,1005.27
2019-03-01T10:28:39.079Z,1005.29
2019-03-01T10:29:38.963Z,1005.28
2019-03-01T10:30:38.965Z,1005.25
2019-03-01T10:31:38.978Z,1005.24
2019-03-01T10:32:39.122Z,1005.28
2019-03-01T10:33:39.051Z,1005.30
2019-03-01T10:34:38.915Z,1005.30
2019-03-01T10:35:38.909Z,1005.35
2019-03-01T10:36:38.890Z,1005.36
2019-03-01T10:37:38.900Z,1005.40
2019-03-01T10:38:38.861Z,1005.38
2019-03-01T10:39:38.971Z,1005.39
2019-03-01T10:40:38.846Z,1005.41
2019-03-01T10:41:38.835Z,1005.43
2019-03-01T10:42:38.831Z,1005.39
2019-03-01T10:43:38.844Z,1005.44
2019-03-01T10:44:38.797Z,1005.43
2019-03-01T10:45:38.866Z,1005.45
2019-03-01T10:46:38.777Z,1005.46
2019-03-01T10:47:38.799Z,1005.46
2019-03-01T10:48:38.773Z,1005.43
2019-03-01T10:49:38.741Z,1005.48
2019-03-01T10:50:38.821Z,1005.46
2019-03-01T10:51:38.722Z,1005.51
2019-03-01T10:52:38.787Z,1005.45
2019-03-01T10:53:38.717Z,1005.55
2019-03-01T10:54:38.694Z,1005.53
2019-03-01T10:55:38.689Z,1005.53
2019-03-01T10:56:38.783Z,1005.51
2019-03-01T10:57:38.665Z,1005.56
2019-03-01T10:58:38.649Z,1005.57
2019-03-01T10:59:38.663Z,1005.60
2019-03-01T11:00:38.755Z,1005.60
2019-03-01T11:01:38.646Z,1005.62
2019-03-01T11:02:38.611Z,1005.62
2019-03-01T11:03:38.588Z,1005.62
2019-03-01T11:04:38.582Z,1005.66
2019-03-01T11:05:38.574Z,1005.69
2019-03-01T11:06:38.632Z,1005.69
2019-03-01T11:07:38.557Z,1005.75
2019-03-01T11:08:38.624Z,1005.71
2019-03-01T11:09:38.563Z,1005.71
2019-03-01T11:10:38.547Z,1005.67
2019-03-01T11:11:38.515Z,1005.66
2019-03-01T11:12:38.496Z,1005.68
2019-03-01T11:13:38.660Z,1005.72
2019-03-01T11:14:38.470Z,1005.70
2019-03-01T11:15:38.460Z,1005.72
2019-03-01T11:16:38.448Z,1005.70
2019-03-01T11:17:38.456Z,1005.75
2019-03-01T11:18:38.433Z,1005.75
2019-03-01T11:19:38.522Z,1005.78
2019-03-01T11:20:38.405Z,1005.78
2019-03-01T11:21:38.389Z,1005.78
2019-03-01T11:22:38.494Z,1005.79
2019-03-01T11:23:38.384Z,1005.78
2019-03-01T11:24:38.361Z,1005.78
2019-03-01T11:25:38.397Z,1005.76
2019-03-01T11:26:38.345Z,1005.77
2019-03-01T11:27:38.341Z,1005.80
2019-03-01T11:28:38.439Z,1005.87
2019-03-01T11:29:38.303Z,1005.87
2019-03-01T11:30:38.292Z,1005.88
2019-03-01T11:31:38.281Z,1005.90
2019-03-01T11:32:38.290Z,1005.88
2019-03-01T11:33:38.256Z,1005.89
2019-03-01T11:34:38.340Z,1005.89
2019-03-01T11:35:38.235Z,1005.91
2019-03-01T11:36:38.242Z,1005.94
2019-03-01T11:37:38.217Z,1005.91
2019-03-01T11:38:38.208Z,1005.88
2019-03-01T11:39:38.203Z,1005.84
2019-03-01T11:40:38.278Z,1005.84
2019-03-01T11:41:38.209Z,1005.85
2019-03-01T11:42:38.176Z,1005.81
2019-03-01T11:43:38.151Z,1005.79
2019-03-01T11:44:38.131Z,1005.84
2019-03-01T11:45:38.139Z,1005.84
2019-03-01T11:46:38.249Z,1005.80
2019-03-01T11:47:38.267Z,1005.81
2019-03-01T11:48:38.102Z,1005.81
2019-03-01T11:49:38.090Z,1005.78
2019-03-01T11:50:38.080Z,1005.82
2019-03-01T11:51:38.068Z,1005.79
2019-03-01T11:52:38.100Z,1005.80
2019-03-01T11:53:38.051Z,1005.82
2019-03-01T11:54:38.038Z,1005.81
2019-03-01T11:55:38.013Z,1005.79
2019-03-01T11:56:37.998Z,1005.86
2019-03-01T11:57:37.996Z,1005.84
2019-03-01T11:58:38.129Z,1005.85
2019-03-01T11:59:37.972Z,1005.83
2019-03-01T12:00:37.972Z,1005.87
2019-03-01T12:01:37.947Z,1005.85
2019-03-01T12:02:37.938Z,1005.85
2019-03-01T12:03:38.040Z,1005.84
2019-03-01T12:09:03.792Z,1005.92
2019-03-01T12:09:33.924Z,1005.96